METAR Data

Data at: 0656 UTC 28 Sep 2022

METAR for:CYFC (Fredericton Intl, NB, CA)
Text:CYFC 280633Z AUTO VRB02KT 1/4SM R09/2800VP6000FT FG BKN002 10/10 A2987 RMK SLP118
Temperature: 10.0°C ( 50°F)
Dewpoint: 10.0°C ( 50°F) [RH = 100%]
Pressure (altimeter):29.87 inches Hg (1011.6 mb) [Sea level pressure: 1011.8 mb]
Winds:variable direction winds at 2 MPH (2 knots; 1.0 m/s)
Visibility: 0.25 sm ( 0.40 km)
Ceiling:200 feet AGL
Clouds: broken clouds at 200 feet AGL
Weather:FG (fog)